Time;durP1;ratioP1;P1;durP2;ratioP2;P2;SDS_P1;SDS_P2;PMS_P1;PMS_P2;Temp;Humidity;BMP_temperature;BMP_pressure;BME280_temperature;BME280_humidity;BME280_pressure;Samples;Min_cycle;Max_cycle;Signal;HPM_P1;HPM_P2
2023/03/18 00:01:07;;;;;;;6.85;2.78;;;;;;;7.96;51.60;94973.06;5039697;28;20533;-70
2023/03/18 00:03:36;;;;;;;6.88;2.90;;;;;;;7.41;53.55;94975.69;5040021;28;20102;-70
2023/03/18 00:06:06;;;;;;;7.10;2.72;;;;;;;7.77;52.59;94979.66;5036311;28;20564;-70
2023/03/18 00:08:32;;;;;;;6.25;2.63;;;;;;;8.26;51.80;94981.09;5036422;28;20432;-71
2023/03/18 00:10:58;;;;;;;6.22;3.00;;;;;;;7.72;53.52;94980.16;5035464;28;20037;-70
2023/03/18 00:13:24;;;;;;;8.35;3.17;;;;;;;7.39;55.26;94978.50;5036105;28;20028;-71
2023/03/18 00:15:50;;;;;;;7.18;2.95;;;;;;;7.81;54.28;94980.13;5036609;28;20139;-71
2023/03/18 00:18:16;;;;;;;5.70;2.95;;;;;;;7.89;54.09;94977.44;5040753;28;20029;-71
2023/03/18 00:20:41;;;;;;;9.50;3.13;;;;;;;7.86;54.70;94975.13;5040526;28;20051;-71
2023/03/18 00:23:07;;;;;;;6.18;3.60;;;;;;;8.03;54.01;94974.00;5041271;28;20249;-71
2023/03/18 00:25:33;;;;;;;7.85;3.30;;;;;;;7.84;54.36;94967.34;5041424;28;20112;-71
2023/03/18 00:27:59;;;;;;;6.72;3.67;;;;;;;8.09;54.39;94963.69;5041138;28;20110;-71
2023/03/18 00:30:24;;;;;;;6.72;2.90;;;;;;;7.92;54.75;94959.34;5040025;28;20056;-71
2023/03/18 00:32:49;;;;;;;7.03;3.35;;;;;;;7.51;55.82;94973.66;5039993;28;20833;-71
2023/03/18 00:35:15;;;;;;;6.72;3.33;;;;;;;6.36;60.77;94968.56;5041115;28;20052;-71
2023/03/18 00:37:41;;;;;;;5.80;3.20;;;;;;;7.53;57.50;94963.72;5041717;28;20029;-71
2023/03/18 00:40:09;;;;;;;8.77;4.28;;;;;;;7.96;55.46;94973.06;5041945;28;20037;-71
2023/03/18 00:42:38;;;;;;;7.45;3.65;;;;;;;8.36;54.27;94966.78;5040655;28;20102;-71
2023/03/18 00:45:07;;;;;;;7.10;3.85;;;;;;;8.66;52.64;94972.13;5040815;28;20029;-71
2023/03/18 00:47:33;;;;;;;7.68;3.85;;;;;;;8.64;52.60;94974.94;5041769;28;20080;-71
2023/03/18 00:49:58;;;;;;;9.55;4.78;;;;;;;8.66;52.54;94974.78;5040312;28;20040;-71
2023/03/18 00:52:24;;;;;;;7.65;4.07;;;;;;;8.86;51.74;94977.72;5040262;28;20032;-71
2023/03/18 00:54:50;;;;;;;4.50;3.33;;;;;;;8.65;52.66;94981.94;5040790;28;20049;-71
2023/03/18 00:57:16;;;;;;;7.43;3.50;;;;;;;8.77;52.52;94979.63;5041026;28;20140;-71
2023/03/18 00:59:41;;;;;;;7.15;4.10;;;;;;;8.90;51.80;94986.97;5040633;28;20024;-71
2023/03/18 01:02:07;;;;;;;6.28;3.50;;;;;;;8.51;52.73;94986.22;5039692;28;20033;-71
2023/03/18 01:04:32;;;;;;;6.40;3.85;;;;;;;8.79;51.72;94980.28;5039050;28;20056;-71
2023/03/18 01:06:58;;;;;;;7.38;4.10;;;;;;;8.59;52.11;94982.63;5039428;28;20037;-71
2023/03/18 01:09:23;;;;;;;6.47;3.67;;;;;;;8.55;52.60;94971.56;5040257;28;20427;-71
2023/03/18 01:11:49;;;;;;;9.13;4.10;;;;;;;8.23;53.47;94968.19;5040775;28;20040;-71
2023/03/18 01:14:14;;;;;;;5.78;3.70;;;;;;;8.61;52.75;94970.03;5039344;28;20488;-71
2023/03/18 01:16:40;;;;;;;6.68;3.97;;;;;;;8.58;52.88;94965.09;5039466;28;20037;-71
2023/03/18 01:19:05;;;;;;;5.70;4.22;;;;;;;8.67;52.48;94968.47;5038472;28;20036;-71
2023/03/18 01:21:31;;;;;;;5.32;3.70;;;;;;;8.72;52.28;94960.78;5040723;28;20118;-71
2023/03/18 01:23:59;;;;;;;12.63;4.18;;;;;;;8.76;52.24;94956.75;5039992;28;20041;-71
2023/03/18 01:26:25;;;;;;;6.40;3.90;;;;;;;8.72;52.71;94958.13;5038657;28;20056;-71
2023/03/18 01:28:50;;;;;;;6.75;3.88;;;;;;;8.17;54.33;94959.13;5037630;28;20283;-71
2023/03/18 01:31:16;;;;;;;7.35;4.57;;;;;;;8.17;53.73;94958.31;5038189;28;20045;-71
2023/03/18 01:33:41;;;;;;;5.68;3.70;;;;;;;8.52;52.16;94953.38;5039903;28;20406;-71
2023/03/18 01:36:07;;;;;;;6.32;3.63;;;;;;;8.81;52.38;94954.38;5039953;28;20048;-71
2023/03/18 01:38:32;;;;;;;5.32;3.58;;;;;;;8.68;52.41;94956.84;5039193;28;20415;-71
2023/03/18 01:40:58;;;;;;;7.32;3.67;;;;;;;8.76;52.66;94962.06;5040708;28;20527;-71
2023/03/18 01:43:29;;;;;;;7.32;3.67;;;;;;;8.92;52.78;94961.06;5040413;28;20045;-71
2023/03/18 01:45:57;;;;;;;8.18;3.80;;;;;;;8.66;52.80;94953.53;5039311;28;20565;-71
2023/03/18 01:48:26;;;;;;;6.50;3.75;;;;;;;7.64;55.83;94949.25;5039649;28;20289;-71
2023/03/18 01:51:04;;;;;;;7.65;3.47;;;;;;;8.50;53.52;94938.63;5021354;28;20043;-71
2023/03/18 01:53:34;;;;;;;6.03;3.70;;;;;;;8.44;53.89;94938.34;5038237;28;20036;-71
2023/03/18 01:56:00;;;;;;;6.40;3.60;;;;;;;8.62;52.79;94929.22;5039527;28;20037;-71
2023/03/18 01:58:31;;;;;;;6.50;3.88;;;;;;;8.72;52.75;94944.88;5038131;28;20086;-71
2023/03/18 02:01:03;;;;;;;7.15;3.78;;;;;;;8.97;52.31;94936.63;5021653;28;20053;-71
2023/03/18 02:03:28;;;;;;;5.70;3.90;;;;;;;9.00;51.78;94936.28;5037739;28;20047;-71
2023/03/18 02:05:54;;;;;;;5.93;3.60;;;;;;;8.86;51.96;94937.06;5038235;28;20034;-71
2023/03/18 02:08:19;;;;;;;7.63;3.60;;;;;;;8.78;52.19;94933.50;5039104;28;20052;-71
2023/03/18 02:10:45;;;;;;;6.65;4.18;;;;;;;8.65;52.91;94938.63;5036794;28;20510;-71
2023/03/18 02:13:11;;;;;;;8.65;3.80;;;;;;;8.57;52.74;94929.75;5038205;28;20021;-72
2023/03/18 02:15:41;;;;;;;7.70;3.75;;;;;;;8.72;52.66;94934.25;5020283;28;20048;-72
2023/03/18 02:18:10;;;;;;;6.10;3.50;;;;;;;8.70;52.15;94936.25;5021685;28;20474;-72
2023/03/18 02:20:36;;;;;;;;;;;;;;;8.85;51.88;94935.44;5021297;28;20651;-72
2023/03/18 02:23:23;;;;;;;5.43;3.22;;;;;;;8.97;51.56;94928.69;5038855;28;20001;-72
2023/03/18 02:25:58;;;;;;;7.68;3.83;;;;;;;8.85;51.98;94924.81;5039221;28;20401;-71
2023/03/18 02:28:25;;;;;;;8.13;4.18;;;;;;;8.79;51.83;94937.00;5036921;28;20517;-71
2023/03/18 02:30:53;;;;;;;6.32;4.28;;;;;;;8.76;51.80;94938.19;5036908;28;20460;-72
2023/03/18 02:33:18;;;;;;;6.43;3.80;;;;;;;8.77;51.56;94934.50;5020770;28;20364;-72
2023/03/18 02:35:44;;;;;;;7.15;4.80;;;;;;;8.74;51.51;94942.84;5037758;28;20048;-72
2023/03/18 02:38:10;;;;;;;7.57;4.10;;;;;;;8.88;51.43;94935.88;5038298;28;20772;-72
2023/03/18 02:40:37;;;;;;;6.07;3.60;;;;;;;8.77;51.55;94937.16;5036912;28;20486;-72
2023/03/18 02:43:29;;;;;;;5.85;3.50;;;;;;;8.76;52.27;94937.34;5036757;28;20090;-72
2023/03/18 02:45:55;;;;;;;6.50;3.25;;;;;;;8.93;51.83;94940.63;5035490;28;20041;-72
2023/03/18 02:48:20;;;;;;;6.43;3.60;;;;;;;8.96;51.54;94929.69;5039163;28;20048;-72
2023/03/18 02:50:48;;;;;;;5.05;3.28;;;;;;;8.95;51.53;94922.75;5035664;28;20094;-72
2023/03/18 02:53:14;;;;;;;5.10;3.50;;;;;;;8.98;51.21;94927.69;5039144;28;20414;-72
2023/03/18 02:55:40;;;;;;;6.03;3.40;;;;;;;8.62;52.00;94937.19;5038489;28;20032;-72
2023/03/18 02:58:06;;;;;;;6.32;3.78;;;;;;;8.70;51.90;94938.91;5038448;28;20717;-72
2023/03/18 03:00:32;;;;;;;6.45;3.97;;;;;;;8.88;51.72;94943.84;5038293;28;20028;-72
2023/03/18 03:02:57;;;;;;;10.88;4.70;;;;;;;6.82;57.17;94939.88;5036747;28;20108;-72
2023/03/18 03:05:23;;;;;;;7.82;3.63;;;;;;;7.81;54.54;94921.81;5038871;28;20024;-72
2023/03/18 03:07:48;;;;;;;7.78;3.83;;;;;;;8.27;52.98;94921.75;5037455;28;20439;-72
2023/03/18 03:10:13;;;;;;;7.55;4.00;;;;;;;8.28;52.64;94918.13;5038657;28;20244;-72
2023/03/18 03:12:39;;;;;;;7.50;3.88;;;;;;;8.22;52.27;94912.69;5037817;28;20365;-72
2023/03/18 03:15:07;;;;;;;9.05;4.07;;;;;;;8.43;52.03;94914.63;5038199;28;20056;-72
2023/03/18 03:17:32;;;;;;;5.88;4.28;;;;;;;8.49;51.36;94915.75;5036685;28;20546;-72
2023/03/18 03:19:58;;;;;;;8.27;3.90;;;;;;;8.57;51.92;94918.34;5037909;28;20364;-72
2023/03/18 03:22:23;;;;;;;23.98;4.82;;;;;;;8.35;52.14;94928.81;5037857;28;20033;-72
2023/03/18 03:24:49;;;;;;;20.45;4.93;;;;;;;8.12;52.92;94940.28;5042408;28;20126;-72
2023/03/18 03:27:15;;;;;;;51.55;5.70;;;;;;;7.88;53.49;94943.97;5037691;28;20367;-72
2023/03/18 03:29:40;;;;;;;61.58;5.90;;;;;;;7.22;55.04;94951.31;5038192;28;20494;-72
2023/03/18 03:32:06;;;;;;;16.52;4.50;;;;;;;7.71;53.99;94936.09;5037481;28;20033;-72
2023/03/18 03:34:32;;;;;;;26.25;4.13;;;;;;;7.95;52.98;94939.59;5037790;28;20044;-72
2023/03/18 03:36:58;;;;;;;208.77;8.55;;;;;;;7.67;53.54;94942.75;5037443;28;20024;-72
2023/03/18 03:39:23;;;;;;;49.17;4.68;;;;;;;7.63;53.59;94941.47;5035715;28;20485;-72
2023/03/18 03:41:48;;;;;;;9.05;5.25;;;;;;;6.51;57.55;94954.69;5037390;28;20045;-72
2023/03/18 03:44:14;;;;;;;8.30;4.35;;;;;;;7.25;53.83;94948.28;5037171;28;20324;-72
2023/03/18 03:46:40;;;;;;;6.78;4.25;;;;;;;7.60;53.04;94941.81;5036727;28;20052;-72
2023/03/18 03:49:05;;;;;;;11.80;4.07;;;;;;;7.71;52.24;94943.22;5036138;28;20408;-72
2023/03/18 03:51:31;;;;;;;16.33;4.53;;;;;;;7.62;52.90;94945.13;5036646;28;20047;-72
2023/03/18 03:53:56;;;;;;;8.23;4.80;;;;;;;7.38;52.91;94953.03;5038018;28;20639;-72
2023/03/18 03:56:21;;;;;;;7.05;4.18;;;;;;;7.17;54.12;94958.13;5035695;28;20635;-72
2023/03/18 03:58:47;;;;;;;6.93;4.20;;;;;;;7.34;53.27;94956.22;5037649;28;20029;-72
2023/03/18 04:01:12;;;;;;;6.57;4.43;;;;;;;7.31;53.34;94964.50;5036005;28;20029;-72
2023/03/18 04:03:38;;;;;;;8.05;4.10;;;;;;;7.27;52.79;94959.56;5036747;28;20037;-72
2023/03/18 04:06:03;;;;;;;14.65;4.53;;;;;;;7.26;52.40;94963.22;5035994;28;20100;-72
2023/03/18 04:08:29;;;;;;;7.03;4.05;;;;;;;7.28;52.80;94963.03;5036476;28;20080;-72
2023/03/18 04:10:54;;;;;;;11.50;4.05;;;;;;;7.25;52.52;94964.19;5036116;28;20057;-71
2023/03/18 04:13:20;;;;;;;15.60;4.43;;;;;;;7.12;52.82;94962.13;5036309;28;20494;-72
2023/03/18 04:15:46;;;;;;;6.72;3.97;;;;;;;6.88;53.63;94957.75;5036037;28;20083;-72
2023/03/18 04:18:13;;;;;;;7.95;4.70;;;;;;;7.03;53.34;94965.78;5038074;28;20498;-72
2023/03/18 04:20:39;;;;;;;6.65;4.40;;;;;;;7.22;52.93;94961.91;5037618;28;20302;-72
2023/03/18 04:23:04;;;;;;;51.00;4.85;;;;;;;6.84;53.42;94972.31;5037412;28;20802;-72
2023/03/18 04:25:30;;;;;;;55.75;4.30;;;;;;;7.02;52.94;94974.72;5036211;28;20099;-72
2023/03/18 04:27:55;;;;;;;66.80;4.22;;;;;;;6.95;52.87;94974.59;5036147;28;20384;-72
2023/03/18 04:30:22;;;;;;;80.45;5.63;;;;;;;6.40;54.80;94970.88;5035933;28;20047;-71
2023/03/18 04:32:49;;;;;;;14.55;4.95;;;;;;;5.94;56.64;94972.22;5035242;28;20120;-71
2023/03/18 04:35:15;;;;;;;44.30;4.75;;;;;;;6.24;55.64;94980.47;5036891;28;20035;-71
2023/03/18 04:37:41;;;;;;;35.08;5.13;;;;;;;6.38;54.72;94977.16;5035812;28;20078;-72
2023/03/18 04:40:08;;;;;;;6.57;3.85;;;;;;;6.60;54.01;94980.13;5036619;28;20435;-72
2023/03/18 04:42:33;;;;;;;7.32;4.28;;;;;;;6.27;54.62;94980.16;5035735;28;20025;-71
2023/03/18 04:44:58;;;;;;;56.03;5.25;;;;;;;6.53;54.63;94989.72;5034452;28;20425;-72
2023/03/18 04:47:24;;;;;;;11.65;4.10;;;;;;;6.66;53.86;94983.09;5036052;28;20451;-71
2023/03/18 04:49:50;;;;;;;24.20;4.07;;;;;;;6.49;53.72;94993.69;5037671;28;20036;-71
2023/03/18 04:52:16;;;;;;;36.05;4.55;;;;;;;6.61;54.28;94997.66;5034143;28;20041;-71
2023/03/18 04:54:42;;;;;;;16.45;4.22;;;;;;;6.79;54.04;94999.25;5036483;28;20021;-71
2023/03/18 04:57:07;;;;;;;30.48;4.30;;;;;;;6.84;53.26;95001.41;5036907;28;20048;-71
2023/03/18 04:59:33;;;;;;;47.35;4.32;;;;;;;7.01;53.08;95007.50;5035595;28;20120;-72
2023/03/18 05:01:58;;;;;;;66.82;4.13;;;;;;;7.03;52.21;95002.84;5035761;28;20052;-72
2023/03/18 05:04:24;;;;;;;30.15;3.38;;;;;;;7.17;52.97;95003.13;5041019;28;20453;-72
2023/03/18 05:06:50;;;;;;;20.38;3.35;;;;;;;7.16;51.59;94994.34;5040424;28;20486;-71
2023/03/18 05:09:17;;;;;;;44.60;3.50;;;;;;;7.13;52.79;94994.69;5037924;28;20171;-71
2023/03/18 05:11:42;;;;;;;31.55;3.50;;;;;;;7.13;53.24;94998.19;5040091;28;20037;-71
2023/03/18 05:14:07;;;;;;;126.20;4.65;;;;;;;7.36;53.31;95000.06;5038987;28;20087;-71
2023/03/18 05:16:33;;;;;;;36.13;3.05;;;;;;;7.46;52.73;94997.19;5046159;28;20063;-71
2023/03/18 05:18:58;;;;;;;35.92;3.70;;;;;;;7.37;52.70;94993.75;5044909;28;20193;-71
2023/03/18 05:21:24;;;;;;;110.82;4.60;;;;;;;7.59;52.69;94994.00;5045176;28;20048;-71
2023/03/18 05:23:49;;;;;;;53.13;3.53;;;;;;;7.42;52.14;94993.25;5043860;28;20138;-71
2023/03/18 05:26:15;;;;;;;72.78;3.97;;;;;;;7.45;52.92;94990.22;5045678;28;20422;-72
2023/03/18 05:28:41;;;;;;;127.65;5.82;;;;;;;6.45;55.48;95000.28;5042469;28;20525;-71
2023/03/18 05:31:06;;;;;;;27.73;4.30;;;;;;;7.11;53.83;94991.41;5037296;28;20045;-71
2023/03/18 05:33:32;;;;;;;12.35;3.65;;;;;;;7.20;53.41;94998.31;5040347;28;20496;-71
2023/03/18 05:35:57;;;;;;;47.92;4.38;;;;;;;7.36;53.16;94996.59;5039869;28;20041;-71
2023/03/18 05:38:23;;;;;;;55.55;4.85;;;;;;;7.25;52.96;95001.25;5005631;28;20033;-71
2023/03/18 05:40:48;;;;;;;56.67;5.57;;;;;;;7.38;52.31;94999.91;5039867;28;20079;-71
2023/03/18 05:43:14;;;;;;;270.23;10.25;;;;;;;6.99;53.96;95012.94;5041862;28;20033;-71
2023/03/18 05:45:39;;;;;;;60.38;5.40;;;;;;;7.12;54.18;95012.41;5039767;28;20040;-71
2023/03/18 05:48:05;;;;;;;57.97;5.40;;;;;;;7.10;53.76;95008.25;5038559;28;20129;-71
2023/03/18 05:50:40;;;;;;;23.15;4.25;;;;;;;7.09;54.07;95007.47;5036761;28;20521;-71
2023/03/18 05:53:06;;;;;;;28.98;4.25;;;;;;;7.33;53.57;95004.88;5039681;28;20028;-71
2023/03/18 05:55:31;;;;;;;62.67;5.22;;;;;;;7.45;52.96;95006.13;5038023;28;20040;-71
2023/03/18 05:57:57;;;;;;;11.27;4.18;;;;;;;7.44;52.75;95008.97;5038737;28;20543;-71
2023/03/18 06:00:23;;;;;;;37.08;4.20;;;;;;;7.62;52.33;95008.72;5039622;28;20178;-71
2023/03/18 06:02:51;;;;;;;4.45;3.72;;;;;;;7.62;52.28;95004.22;5041699;28;20163;-71
2023/03/18 06:05:17;;;;;;;31.23;4.30;;;;;;;7.59;51.79;95014.34;5041017;28;20191;-71
2023/03/18 06:07:42;;;;;;;26.92;4.70;;;;;;;7.60;52.29;95010.69;5039179;28;20380;-71
2023/03/18 06:10:09;;;;;;;39.47;3.80;;;;;;;7.56;52.07;95022.63;5041166;28;20423;-71
2023/03/18 06:12:34;;;;;;;11.60;4.68;;;;;;;7.45;52.29;95021.22;5023411;28;20041;-71
2023/03/18 06:15:00;;;;;;;8.63;4.40;;;;;;;7.42;52.04;95014.44;5041222;28;20379;-71
2023/03/18 06:17:26;;;;;;;13.25;3.50;;;;;;;7.44;51.80;95015.06;5036639;28;20071;-71
2023/03/18 06:19:51;;;;;;;7.43;3.58;;;;;;;7.47;51.80;95017.38;5039174;28;20048;-71
2023/03/18 06:22:17;;;;;;;38.60;3.80;;;;;;;7.45;51.46;95014.06;5037288;28;20040;-71
2023/03/18 06:24:43;;;;;;;19.98;3.70;;;;;;;7.48;50.96;95019.03;5039663;28;20047;-71
2023/03/18 06:27:08;;;;;;;6.30;3.72;;;;;;;7.46;51.01;95013.09;5041260;28;20455;-71
2023/03/18 06:29:34;;;;;;;22.52;4.05;;;;;;;7.46;51.33;95023.69;5042428;28;20029;-71
2023/03/18 06:32:00;;;;;;;11.80;3.83;;;;;;;7.51;51.13;95018.69;5037818;28;20073;-72
2023/03/18 06:34:25;;;;;;;14.57;4.13;;;;;;;7.66;50.97;95026.72;5037383;28;20090;-72
2023/03/18 06:36:51;;;;;;;11.60;4.13;;;;;;;7.70;51.51;95031.66;5040169;28;20032;-72
2023/03/18 06:39:17;;;;;;;11.13;4.00;;;;;;;7.62;51.29;95030.72;5038334;28;20068;-71
2023/03/18 06:41:43;;;;;;;7.25;3.65;;;;;;;7.78;51.01;95037.78;5039747;28;20031;-71
2023/03/18 06:44:09;;;;;;;7.00;3.70;;;;;;;7.95;50.20;95040.31;5039742;28;20036;-71
2023/03/18 06:46:34;;;;;;;6.20;3.80;;;;;;;7.92;51.31;95046.81;5039157;28;20517;-71
2023/03/18 06:49:00;;;;;;;6.63;4.05;;;;;;;7.98;51.08;95042.63;5038911;28;20032;-71
2023/03/18 06:51:25;;;;;;;9.10;4.45;;;;;;;8.19;50.66;95046.47;5036470;28;20052;-71
2023/03/18 06:53:51;;;;;;;9.65;4.60;;;;;;;7.98;51.52;95045.28;5038380;28;20040;-71
2023/03/18 06:56:16;;;;;;;6.50;4.20;;;;;;;8.37;50.38;95043.50;5038424;28;20077;-71
2023/03/18 06:58:42;;;;;;;5.50;3.97;;;;;;;8.45;50.32;95047.94;5038734;28;20037;-71
2023/03/18 07:01:07;;;;;;;5.68;3.85;;;;;;;8.48;50.49;95044.94;5038020;28;20649;-71
2023/03/18 07:03:33;;;;;;;6.20;4.18;;;;;;;8.61;50.40;95054.09;5037893;28;20047;-71
2023/03/18 07:06:00;;;;;;;8.98;4.55;;;;;;;8.73;49.84;95052.66;5038791;28;20350;-71
2023/03/18 07:08:25;;;;;;;6.75;3.90;;;;;;;8.71;49.73;95053.84;5036858;28;20048;-71
2023/03/18 07:10:52;;;;;;;5.68;4.00;;;;;;;8.73;50.13;95049.16;5037754;28;20450;-71
2023/03/18 07:13:18;;;;;;;5.28;3.80;;;;;;;8.79;49.84;95049.31;5038518;28;20473;-71
2023/03/18 07:15:44;;;;;;;6.95;4.10;;;;;;;8.89;49.93;95059.66;5036476;28;20041;-71
2023/03/18 07:18:09;;;;;;;7.88;4.32;;;;;;;8.90;49.87;95055.16;5037218;28;20048;-71
2023/03/18 07:20:35;;;;;;;7.28;3.90;;;;;;;8.98;49.57;95059.59;5037845;28;20045;-71
2023/03/18 07:23:02;;;;;;;6.95;4.10;;;;;;;9.00;49.44;95055.75;5038145;28;20047;-71
2023/03/18 07:25:28;;;;;;;4.95;3.70;;;;;;;9.19;48.91;95056.22;5038727;28;20044;-71
2023/03/18 07:27:54;;;;;;;6.65;4.95;;;;;;;8.21;50.87;95057.72;5035417;28;20517;-71
2023/03/18 07:30:20;;;;;;;7.68;4.60;;;;;;;8.52;50.72;95063.97;5020080;28;20025;-71
2023/03/18 07:32:45;;;;;;;7.57;3.90;;;;;;;8.76;50.36;95065.56;5036172;28;20204;-71
2023/03/18 07:35:13;;;;;;;5.43;3.67;;;;;;;8.91;50.12;95070.91;5038568;28;20041;-71
2023/03/18 07:37:39;;;;;;;5.85;4.00;;;;;;;9.25;49.97;95070.59;5037424;28;20426;-71
2023/03/18 07:40:05;;;;;;;7.57;4.32;;;;;;;9.25;48.85;95065.28;5037695;28;20420;-71
2023/03/18 07:42:30;;;;;;;5.30;3.95;;;;;;;9.48;49.05;95069.69;5038096;28;20520;-71
2023/03/18 07:44:56;;;;;;;6.57;4.15;;;;;;;9.53;48.79;95084.06;5038044;28;20037;-71
2023/03/18 07:47:23;;;;;;;5.88;4.20;;;;;;;9.53;49.35;95083.25;5038747;28;20285;-71
2023/03/18 07:49:50;;;;;;;6.30;4.13;;;;;;;9.92;48.34;95086.56;5036489;28;20040;-71
2023/03/18 07:52:16;;;;;;;5.68;4.35;;;;;;;10.17;48.23;95088.94;5036170;28;20080;-71
2023/03/18 07:54:42;;;;;;;7.88;4.93;;;;;;;9.81;47.34;95091.38;5036645;28;20351;-71
2023/03/18 07:57:08;;;;;;;6.88;4.45;;;;;;;10.05;48.37;95094.75;5037212;28;20052;-71
2023/03/18 07:59:35;;;;;;;7.82;4.07;;;;;;;10.47;47.91;95091.47;5038055;28;20820;-71
2023/03/18 08:02:01;;;;;;;7.13;3.85;;;;;;;10.63;47.36;95095.72;5037359;28;20024;-71
2023/03/18 08:04:27;;;;;;;6.28;3.80;;;;;;;10.91;47.29;95094.09;5037424;28;20043;-71
2023/03/18 08:06:54;;;;;;;9.18;4.38;;;;;;;10.28;47.93;95091.09;5038783;28;20040;-71
2023/03/18 08:09:19;;;;;;;7.30;4.20;;;;;;;9.06;50.25;95092.22;5036917;28;20461;-71
2023/03/18 08:11:45;;;;;;;8.57;4.28;;;;;;;9.68;49.54;95086.72;5037643;28;20036;-71
2023/03/18 08:14:11;;;;;;;8.48;4.65;;;;;;;8.84;51.62;95087.75;5037945;28;20041;-71
2023/03/18 08:16:36;;;;;;;9.90;4.20;;;;;;;9.87;48.07;95081.81;5036075;28;20041;-71
2023/03/18 08:19:02;;;;;;;6.32;3.70;;;;;;;10.10;47.67;95088.88;5037389;28;20036;-71
2023/03/18 08:21:28;;;;;;;7.80;3.92;;;;;;;10.48;47.24;95083.28;5037930;28;20029;-71
2023/03/18 08:23:55;;;;;;;6.20;3.92;;;;;;;9.96;47.77;95094.00;5037387;28;20044;-71
2023/03/18 08:26:20;;;;;;;7.18;3.90;;;;;;;10.44;47.44;95081.22;5037119;28;20405;-71
2023/03/18 08:28:46;;;;;;;5.97;3.72;;;;;;;10.65;45.36;95093.69;5038024;28;20037;-71
2023/03/18 08:31:13;;;;;;;7.38;4.20;;;;;;;8.43;52.10;95102.97;5037189;28;20083;-71
2023/03/18 08:33:38;;;;;;;4.25;3.10;;;;;;;9.69;48.74;95100.84;5037764;28;20032;-71
2023/03/18 08:36:04;;;;;;;7.75;3.65;;;;;;;10.05;47.88;95100.06;5037250;28;20926;-71
2023/03/18 08:38:29;;;;;;;6.65;3.42;;;;;;;10.49;46.49;95103.59;5039172;28;20481;-71
2023/03/18 08:40:55;;;;;;;5.03;3.33;;;;;;;10.77;45.99;95101.97;5041212;28;20098;-71
2023/03/18 08:43:21;;;;;;;7.22;3.50;;;;;;;10.72;46.24;95107.84;5041287;28;20137;-71
2023/03/18 08:45:53;;;;;;;8.65;3.85;;;;;;;9.34;48.62;95112.00;5044227;28;20060;-71
2023/03/18 08:48:19;;;;;;;5.80;3.03;;;;;;;10.40;47.13;95110.03;5042672;28;20147;-71
2023/03/18 08:50:45;;;;;;;6.60;3.20;;;;;;;9.98;47.77;95117.72;5037597;28;20310;-71
2023/03/18 08:53:11;;;;;;;6.43;3.60;;;;;;;9.85;47.84;95124.53;5041655;28;20029;-71
2023/03/18 08:55:38;;;;;;;6.15;3.33;;;;;;;10.40;46.59;95118.00;5039387;28;20327;-68
2023/03/18 08:58:04;;;;;;;5.53;3.25;;;;;;;10.49;41.83;95116.88;5041653;28;20399;-67
2023/03/18 09:00:30;;;;;;;4.43;3.00;;;;;;;10.87;41.63;95121.13;5042445;28;20397;-69
2023/03/18 09:02:55;;;;;;;4.95;2.83;;;;;;;11.18;42.59;95119.13;5043613;28;20211;-69
2023/03/18 09:05:20;;;;;;;7.35;3.03;;;;;;;11.30;42.99;95124.75;5041136;28;20037;-70
2023/03/18 09:07:46;;;;;;;7.07;3.53;;;;;;;10.21;46.40;95127.44;5040362;28;20040;-69
2023/03/18 09:10:13;;;;;;;6.70;3.05;;;;;;;10.61;42.75;95125.19;5040210;28;20382;-69
2023/03/18 09:12:40;;;;;;;6.25;3.10;;;;;;;10.82;45.16;95115.56;5039466;28;20039;-69
2023/03/18 09:15:06;;;;;;;8.35;3.58;;;;;;;11.13;44.42;95114.38;5046302;28;20577;-71
2023/03/18 09:17:31;;;;;;;9.60;3.05;;;;;;;11.42;40.02;95110.88;5040730;28;20021;-71
2023/03/18 09:19:57;;;;;;;4.53;2.88;;;;;;;11.17;44.22;95117.47;5040202;28;20040;-71
2023/03/18 09:22:22;;;;;;;5.53;3.17;;;;;;;11.77;42.48;95113.53;5041560;28;20028;-71
2023/03/18 09:24:48;;;;;;;6.13;3.28;;;;;;;11.70;43.16;95118.81;5042295;28;20024;-71
2023/03/18 09:27:13;;;;;;;4.20;2.70;;;;;;;11.98;42.25;95120.59;5043750;28;20037;-71
2023/03/18 09:29:39;;;;;;;6.65;2.90;;;;;;;11.82;41.07;95123.59;5040874;28;20448;-71
2023/03/18 09:32:05;;;;;;;5.30;2.80;;;;;;;11.87;43.32;95119.31;5039579;28;20361;-76
2023/03/18 09:34:30;;;;;;;6.38;3.15;;;;;;;11.88;43.38;95118.31;5040301;28;20805;-75
2023/03/18 09:36:57;;;;;;;7.07;3.10;;;;;;;12.58;42.83;95111.13;5038913;28;20040;-75
2023/03/18 09:39:22;;;;;;;5.22;3.05;;;;;;;13.07;42.71;95115.50;5039134;28;20056;-75
2023/03/18 09:41:59;;;;;;;5.00;2.83;;;;;;;13.47;40.92;95106.63;5038905;28;20108;-75
2023/03/18 09:44:30;;;;;;;7.32;3.50;;;;;;;13.58;40.15;95114.00;5037897;28;20136;-75
2023/03/18 09:47:17;;;;;;;7.22;3.00;;;;;;;14.14;39.15;95111.75;5022048;28;20622;-75
2023/03/18 09:49:45;;;;;;;6.00;2.90;;;;;;;14.37;38.34;95107.75;5039271;28;20036;-75
2023/03/18 09:52:26;;;;;;;4.80;2.65;;;;;;;14.13;38.76;95112.81;5037024;28;20516;-75
2023/03/18 09:54:58;;;;;;;4.85;2.70;;;;;;;14.13;39.81;95117.31;5037969;28;20044;-75
2023/03/18 09:57:29;;;;;;;5.68;2.90;;;;;;;13.55;40.62;95106.38;5038550;28;20028;-75
2023/03/18 10:00:20;;;;;;;3.78;1.95;;;;;;;13.93;37.01;95127.09;5021848;28;20036;-75
2023/03/18 10:02:48;;;;;;;5.50;2.40;;;;;;;12.32;40.69;95112.72;5024254;28;20142;-75
2023/03/18 10:05:20;;;;;;;7.80;2.80;;;;;;;13.00;41.42;95105.66;5037906;28;20033;-75
2023/03/18 10:07:46;;;;;;;7.38;2.97;;;;;;;13.03;41.46;95110.56;5036774;28;20529;-75
2023/03/18 10:10:27;;;;;;;6.30;3.10;;;;;;;13.56;39.96;95111.53;5021087;28;20063;-75
2023/03/18 10:13:28;;;;;;;5.93;2.88;;;;;;;14.07;36.10;95109.13;5022716;28;20048;-76
2023/03/18 10:15:55;;;;;;;4.32;2.50;;;;;;;14.08;39.06;95118.00;5036770;28;20057;-75
2023/03/18 10:18:26;;;;;;;6.00;2.77;;;;;;;12.66;41.64;95120.81;5037365;28;20541;-75
2023/03/18 10:21:20;;;;;;;5.13;2.67;;;;;;;13.07;41.89;95121.69;5037478;28;20024;-76
2023/03/18 10:24:03;;;;;;;8.68;2.75;;;;;;;14.29;38.91;95121.38;5037314;28;20103;-75
2023/03/18 10:26:29;;;;;;;7.07;2.63;;;;;;;13.98;39.87;95126.47;5038961;28;20036;-75
2023/03/18 10:29:16;;;;;;;4.72;2.50;;;;;;;12.34;42.53;95121.34;5037825;28;20076;-75
2023/03/18 10:32:28;;;;;;;4.88;2.33;;;;;;;12.98;41.66;95117.53;5039013;28;20623;-75
2023/03/18 10:34:56;;;;;;;4.10;2.45;;;;;;;14.27;40.18;95123.44;5036316;28;20044;-75
2023/03/18 10:37:22;;;;;;;;;;;;;;;14.68;39.01;95121.34;5039220;28;20510;-75
2023/03/18 10:39:48;;;;;;;5.10;2.70;;;;;;;13.74;39.63;95126.09;5039122;28;20303;-75
2023/03/18 10:42:18;;;;;;;5.45;2.90;;;;;;;12.54;43.34;95131.25;5023229;28;20028;-75
2023/03/18 10:44:44;;;;;;;4.88;2.65;;;;;;;12.64;43.70;95130.84;5041756;28;20048;-75
2023/03/18 10:47:20;;;;;;;5.93;2.30;;;;;;;13.82;39.13;95122.38;5040647;28;20048;-75
2023/03/18 10:49:52;;;;;;;7.47;2.17;;;;;;;14.44;37.08;95119.25;5036946;28;20029;-75
2023/03/18 10:52:22;;;;;;;4.45;2.38;;;;;;;14.45;38.14;95126.22;5021991;28;20108;-75
2023/03/18 10:54:51;;;;;;;6.05;2.40;;;;;;;14.58;38.16;95122.66;5003980;28;20497;-76
2023/03/18 10:57:17;;;;;;;5.18;2.40;;;;;;;14.77;38.12;95129.97;5037138;28;20036;-75
2023/03/18 10:59:44;;;;;;;5.13;2.10;;;;;;;13.58;39.18;95138.06;5036681;28;20410;-75
2023/03/18 11:02:45;;;;;;;6.07;2.50;;;;;;;13.65;37.95;95120.16;5035196;28;20025;-75
2023/03/18 11:05:10;;;;;;;8.27;2.10;;;;;;;14.01;37.62;95125.22;4974011;28;20047;-75
2023/03/18 11:07:38;;;;;;;3.73;2.20;;;;;;;14.37;37.28;95121.13;5023083;28;20037;-75
2023/03/18 11:10:13;;;;;;;;;;;;;;;14.13;37.04;95123.50;5018482;28;20029;-76
2023/03/18 11:12:39;;;;;;;4.35;2.30;;;;;;;14.76;36.73;95125.66;5036324;28;20425;-75
2023/03/18 11:15:18;;;;;;;5.88;2.20;;;;;;;12.28;41.56;95124.84;5036343;28;20059;-75
2023/03/18 11:17:43;;;;;;;5.22;2.33;;;;;;;14.27;38.81;95120.75;5037685;28;20135;-75
2023/03/18 11:20:24;;;;;;;3.22;2.28;;;;;;;14.27;37.04;95128.78;5021165;28;20044;-75
2023/03/18 11:22:54;;;;;;;5.90;2.08;;;;;;;15.57;34.95;95127.72;5005475;28;20052;-75
2023/03/18 11:25:25;;;;;;;3.05;1.80;;;;;;;16.24;33.82;95134.16;5037927;28;20029;-76
2023/03/18 11:27:56;;;;;;;2.63;1.77;;;;;;;16.05;33.71;95130.69;5020672;28;20041;-75
2023/03/18 11:30:28;;;;;;;3.38;1.80;;;;;;;16.69;33.90;95137.56;5021405;28;20397;-75
2023/03/18 11:32:57;;;;;;;2.58;1.67;;;;;;;16.66;31.41;95125.41;5035956;28;20049;-75
2023/03/18 11:35:30;;;;;;;2.90;1.63;;;;;;;15.52;33.39;95133.69;5036149;28;20114;-75
2023/03/18 11:37:57;;;;;;;3.53;1.70;;;;;;;15.29;33.18;95135.16;5036530;28;20032;-75
2023/03/18 11:40:25;;;;;;;4.40;1.60;;;;;;;15.49;33.56;95137.66;5036823;28;20029;-76